Terminal Aerodrome Forecast
Issued by NWS Wilmington, OH

Home | Current Version | Previous Version | Text Only | Print | Product List | Glossary On
Versions: 1 2 3 4 5 6 7 8 9 10 11 12 13 14 15 16 17 18 19 20 21
511
FTUS41 KILN 212211 AAB
TAFCMH
TAF AMD
KCMH 212211Z 2122/2218 19006KT P6SM VCSH SCT018 OVC028
     FM220500 18005KT P6SM BKN035
     FM221000 16005KT P6SM BKN070
     FM221600 17012G22KT P6SM BKN080=

USA.gov is the U.S. government's official web portal to all federal, state and local government web resources and services.